sensor_id;sensor_type;location;lat;lon;timestamp;pressure;altitude;pressure_sealevel;temperature;humidity
21588;BME280;10956;48.878;13.316;2023-03-26T00:01:25;93600.22;;;6.12;100.00
21588;BME280;10956;48.878;13.316;2023-03-26T00:03:52;93600.72;;;6.09;100.00
21588;BME280;10956;48.878;13.316;2023-03-26T00:06:27;93605.91;;;6.04;100.00
21588;BME280;10956;48.878;13.316;2023-03-26T00:08:54;93598.56;;;6.01;100.00
21588;BME280;10956;48.878;13.316;2023-03-26T00:11:21;93604.84;;;6.00;100.00
21588;BME280;10956;48.878;13.316;2023-03-26T00:13:47;93600.41;;;6.01;100.00
21588;BME280;10956;48.878;13.316;2023-03-26T00:16:15;93603.28;;;6.04;100.00
21588;BME280;10956;48.878;13.316;2023-03-26T00:18:41;93595.38;;;5.94;100.00
21588;BME280;10956;48.878;13.316;2023-03-26T00:21:10;93600.31;;;5.91;100.00
21588;BME280;10956;48.878;13.316;2023-03-26T00:23:36;93605.72;;;5.84;100.00
21588;BME280;10956;48.878;13.316;2023-03-26T00:26:03;93607.91;;;5.92;100.00
21588;BME280;10956;48.878;13.316;2023-03-26T00:28:29;93606.34;;;5.91;100.00
21588;BME280;10956;48.878;13.316;2023-03-26T00:30:59;93606.13;;;5.98;100.00
21588;BME280;10956;48.878;13.316;2023-03-26T00:33:26;93611.94;;;6.05;100.00
21588;BME280;10956;48.878;13.316;2023-03-26T00:35:53;93596.53;;;6.08;100.00
21588;BME280;10956;48.878;13.316;2023-03-26T00:38:23;93606.47;;;6.11;100.00
21588;BME280;10956;48.878;13.316;2023-03-26T00:40:50;93596.03;;;6.17;100.00
21588;BME280;10956;48.878;13.316;2023-03-26T00:43:17;93601.81;;;6.19;100.00
21588;BME280;10956;48.878;13.316;2023-03-26T00:45:51;93601.31;;;6.22;100.00
21588;BME280;10956;48.878;13.316;2023-03-26T00:48:17;93593.72;;;6.20;100.00
21588;BME280;10956;48.878;13.316;2023-03-26T00:50:44;93589.78;;;6.18;100.00
21588;BME280;10956;48.878;13.316;2023-03-26T00:53:11;93589.78;;;6.18;100.00
21588;BME280;10956;48.878;13.316;2023-03-26T00:55:41;93583.75;;;6.17;100.00
21588;BME280;10956;48.878;13.316;2023-03-26T00:58:07;93595.78;;;6.18;100.00
21588;BME280;10956;48.878;13.316;2023-03-26T01:01:01;93592.94;;;6.20;100.00
21588;BME280;10956;48.878;13.316;2023-03-26T01:03:31;93591.34;;;6.19;100.00
21588;BME280;10956;48.878;13.316;2023-03-26T01:06:21;93589.25;;;6.15;100.00
21588;BME280;10956;48.878;13.316;2023-03-26T01:08:48;93586.13;;;6.19;100.00
21588;BME280;10956;48.878;13.316;2023-03-26T01:11:18;93584.00;;;6.15;100.00
21588;BME280;10956;48.878;13.316;2023-03-26T01:14:11;93582.41;;;6.09;100.00
21588;BME280;10956;48.878;13.316;2023-03-26T01:16:41;93588.41;;;6.10;100.00
21588;BME280;10956;48.878;13.316;2023-03-26T01:21:48;93578.81;;;6.21;100.00
21588;BME280;10956;48.878;13.316;2023-03-26T01:24:13;93576.19;;;6.21;100.00
21588;BME280;10956;48.878;13.316;2023-03-26T01:37:32;93584.53;;;6.18;100.00
21588;BME280;10956;48.878;13.316;2023-03-26T01:40:20;93578.28;;;6.19;100.00
21588;BME280;10956;48.878;13.316;2023-03-26T01:42:55;93571.22;;;6.19;100.00
21588;BME280;10956;48.878;13.316;2023-03-26T01:45:35;93572.44;;;6.06;100.00
21588;BME280;10956;48.878;13.316;2023-03-26T01:48:03;93564.06;;;6.04;100.00
21588;BME280;10956;48.878;13.316;2023-03-26T01:50:29;93573.38;;;5.90;100.00
21588;BME280;10956;48.878;13.316;2023-03-26T01:52:55;93572.88;;;5.93;100.00
21588;BME280;10956;48.878;13.316;2023-03-26T01:55:24;93571.09;;;5.99;100.00
21588;BME280;10956;48.878;13.316;2023-03-26T01:58:07;93570.84;;;6.00;100.00
21588;BME280;10956;48.878;13.316;2023-03-26T02:00:41;93568.75;;;6.02;100.00
21588;BME280;10956;48.878;13.316;2023-03-26T02:03:24;93561.41;;;5.99;100.00
21588;BME280;10956;48.878;13.316;2023-03-26T02:06:28;93564.53;;;5.96;100.00
21588;BME280;10956;48.878;13.316;2023-03-26T02:09:00;93550.38;;;5.92;100.00
21588;BME280;10956;48.878;13.316;2023-03-26T02:11:27;93556.69;;;5.96;100.00
21588;BME280;10956;48.878;13.316;2023-03-26T02:13:53;93557.19;;;5.93;100.00
21588;BME280;10956;48.878;13.316;2023-03-26T02:16:19;93550.06;;;5.89;100.00
21588;BME280;10956;48.878;13.316;2023-03-26T02:18:47;93555.31;;;5.89;100.00
21588;BME280;10956;48.878;13.316;2023-03-26T02:21:18;93557.69;;;5.90;100.00
21588;BME280;10956;48.878;13.316;2023-03-26T02:23:45;93562.94;;;5.90;100.00
21588;BME280;10956;48.878;13.316;2023-03-26T02:26:13;93555.81;;;5.86;100.00
21588;BME280;10956;48.878;13.316;2023-03-26T02:28:40;93546.38;;;5.84;100.00
21588;BME280;10956;48.878;13.316;2023-03-26T02:31:05;93547.19;;;5.85;100.00
21588;BME280;10956;48.878;13.316;2023-03-26T02:33:33;93547.22;;;5.90;100.00
21588;BME280;10956;48.878;13.316;2023-03-26T02:35:59;93545.34;;;5.86;100.00
21588;BME280;10956;48.878;13.316;2023-03-26T02:38:26;93539.53;;;5.78;100.00
21588;BME280;10956;48.878;13.316;2023-03-26T02:40:53;93539.03;;;5.81;100.00
21588;BME280;10956;48.878;13.316;2023-03-26T02:43:18;93537.25;;;5.87;100.00
21588;BME280;10956;48.878;13.316;2023-03-26T02:45:44;93534.19;;;5.95;100.00
21588;BME280;10956;48.878;13.316;2023-03-26T02:48:11;93547.31;;;6.00;100.00
21588;BME280;10956;48.878;13.316;2023-03-26T02:50:36;93546.78;;;6.03;100.00
21588;BME280;10956;48.878;13.316;2023-03-26T02:53:01;93548.38;;;6.04;100.00
21588;BME280;10956;48.878;13.316;2023-03-26T02:55:27;93546.56;;;6.10;100.00
21588;BME280;10956;48.878;13.316;2023-03-26T02:57:52;93542.63;;;6.07;100.00
21588;BME280;10956;48.878;13.316;2023-03-26T03:00:18;93538.41;;;6.01;100.00
21588;BME280;10956;48.878;13.316;2023-03-26T03:02:46;93531.59;;;6.00;100.00
21588;BME280;10956;48.878;13.316;2023-03-26T03:05:12;93536.09;;;6.05;100.00
21588;BME280;10956;48.878;13.316;2023-03-26T03:07:38;93535.31;;;6.09;100.00
21588;BME280;10956;48.878;13.316;2023-03-26T03:10:05;93531.66;;;6.10;100.00
21588;BME280;10956;48.878;13.316;2023-03-26T03:12:34;93530.09;;;6.09;100.00
21588;BME280;10956;48.878;13.316;2023-03-26T03:15:00;93528.47;;;5.98;100.00
21588;BME280;10956;48.878;13.316;2023-03-26T03:17:25;93518.50;;;5.95;100.00
21588;BME280;10956;48.878;13.316;2023-03-26T03:19:51;93516.69;;;5.96;100.00
21588;BME280;10956;48.878;13.316;2023-03-26T03:22:17;93522.66;;;5.91;100.00
21588;BME280;10956;48.878;13.316;2023-03-26T03:24:42;93510.81;;;5.83;100.00
21588;BME280;10956;48.878;13.316;2023-03-26T03:27:08;93503.22;;;5.82;100.00
21588;BME280;10956;48.878;13.316;2023-03-26T03:29:34;93504.25;;;5.76;100.00
21588;BME280;10956;48.878;13.316;2023-03-26T03:32:00;93500.81;;;5.70;100.00
21588;BME280;10956;48.878;13.316;2023-03-26T03:34:25;93503.13;;;5.67;100.00
21588;BME280;10956;48.878;13.316;2023-03-26T03:36:51;93509.13;;;5.62;100.00
21588;BME280;10956;48.878;13.316;2023-03-26T03:39:16;93503.88;;;5.62;100.00
21588;BME280;10956;48.878;13.316;2023-03-26T03:41:42;93502.59;;;5.65;100.00
21588;BME280;10956;48.878;13.316;2023-03-26T03:44:07;93509.44;;;5.71;100.00
21588;BME280;10956;48.878;13.316;2023-03-26T03:46:32;93505.28;;;5.75;100.00
21588;BME280;10956;48.878;13.316;2023-03-26T03:48:58;93505.81;;;5.77;100.00
21588;BME280;10956;48.878;13.316;2023-03-26T03:51:23;93500.09;;;5.80;100.00
21588;BME280;10956;48.878;13.316;2023-03-26T03:53:49;93499.56;;;5.83;100.00
21588;BME280;10956;48.878;13.316;2023-03-26T03:56:15;93489.41;;;5.87;100.00
21588;BME280;10956;48.878;13.316;2023-03-26T03:58:43;93488.13;;;5.89;100.00
21588;BME280;10956;48.878;13.316;2023-03-26T04:01:11;93488.66;;;5.91;100.00
21588;BME280;10956;48.878;13.316;2023-03-26T04:03:38;93480.59;;;5.98;100.00
21588;BME280;10956;48.878;13.316;2023-03-26T04:06:05;93488.72;;;6.01;100.00
21588;BME280;10956;48.878;13.316;2023-03-26T04:08:35;93479.59;;;6.04;100.00
21588;BME280;10956;48.878;13.316;2023-03-26T04:11:01;93484.03;;;6.03;100.00
21588;BME280;10956;48.878;13.316;2023-03-26T04:13:26;93479.31;;;6.05;100.00
21588;BME280;10956;48.878;13.316;2023-03-26T04:15:52;93480.66;;;6.08;100.00
21588;BME280;10956;48.878;13.316;2023-03-26T04:18:18;93483.00;;;6.09;100.00
21588;BME280;10956;48.878;13.316;2023-03-26T04:20:44;93481.44;;;6.08;100.00
21588;BME280;10956;48.878;13.316;2023-03-26T04:23:15;93479.06;;;6.07;100.00
21588;BME280;10956;48.878;13.316;2023-03-26T04:25:50;93482.44;;;6.02;100.00
21588;BME280;10956;48.878;13.316;2023-03-26T04:28:35;93472.25;;;6.01;100.00
21588;BME280;10956;48.878;13.316;2023-03-26T04:31:12;93474.06;;;6.00;100.00
21588;BME280;10956;48.878;13.316;2023-03-26T04:33:42;93470.94;;;5.98;100.00
21588;BME280;10956;48.878;13.316;2023-03-26T04:36:10;93467.69;;;5.86;100.00
21588;BME280;10956;48.878;13.316;2023-03-26T04:38:40;93454.38;;;5.88;100.00
21588;BME280;10956;48.878;13.316;2023-03-26T04:41:07;93466.13;;;5.85;100.00
21588;BME280;10956;48.878;13.316;2023-03-26T04:43:35;93459.81;;;5.81;100.00
21588;BME280;10956;48.878;13.316;2023-03-26T04:46:01;93458.47;;;5.73;100.00
21588;BME280;10956;48.878;13.316;2023-03-26T04:48:28;93462.59;;;5.64;100.00
21588;BME280;10956;48.878;13.316;2023-03-26T04:50:55;93460.25;;;5.63;100.00
21588;BME280;10956;48.878;13.316;2023-03-26T04:53:20;93457.13;;;5.66;100.00
21588;BME280;10956;48.878;13.316;2023-03-26T04:58:47;93460.84;;;5.75;100.00
21588;BME280;10956;48.878;13.316;2023-03-26T05:01:14;93468.19;;;5.83;100.00
21588;BME280;10956;48.878;13.316;2023-03-26T05:03:41;93462.47;;;5.86;100.00
21588;BME280;10956;48.878;13.316;2023-03-26T05:06:09;93472.44;;;5.89;100.00
21588;BME280;10956;48.878;13.316;2023-03-26T05:08:35;93467.22;;;5.89;100.00
21588;BME280;10956;48.878;13.316;2023-03-26T05:11:00;93469.84;;;5.94;100.00
21588;BME280;10956;48.878;13.316;2023-03-26T05:13:26;93470.38;;;5.96;100.00
21588;BME280;10956;48.878;13.316;2023-03-26T05:15:51;93476.13;;;5.93;100.00
21588;BME280;10956;48.878;13.316;2023-03-26T05:18:17;93474.59;;;5.97;100.00
21588;BME280;10956;48.878;13.316;2023-03-26T05:20:42;93479.84;;;6.02;100.00
21588;BME280;10956;48.878;13.316;2023-03-26T05:23:08;93471.47;;;6.05;100.00
21588;BME280;10956;48.878;13.316;2023-03-26T05:25:34;93469.41;;;6.07;100.00
21588;BME280;10956;48.878;13.316;2023-03-26T05:28:01;93475.13;;;6.04;100.00
21588;BME280;10956;48.878;13.316;2023-03-26T05:30:26;93479.34;;;6.10;100.00
21588;BME280;10956;48.878;13.316;2023-03-26T05:32:52;93472.81;;;6.13;100.00
21588;BME280;10956;48.878;13.316;2023-03-26T05:35:18;93478.84;;;6.13;100.00
21588;BME280;10956;48.878;13.316;2023-03-26T05:37:45;93478.84;;;6.13;100.00
21588;BME280;10956;48.878;13.316;2023-03-26T05:40:12;93484.31;;;6.07;100.00
21588;BME280;10956;48.878;13.316;2023-03-26T05:42:39;93475.16;;;6.09;100.00
21588;BME280;10956;48.878;13.316;2023-03-26T05:45:06;93483.00;;;6.09;100.00
21588;BME280;10956;48.878;13.316;2023-03-26T05:47:32;93478.09;;;6.23;100.00
21588;BME280;10956;48.878;13.316;2023-03-26T05:49:58;93482.56;;;6.33;100.00
21588;BME280;10956;48.878;13.316;2023-03-26T05:52:23;93474.75;;;6.38;100.00
21588;BME280;10956;48.878;13.316;2023-03-26T05:54:49;93480.00;;;6.48;100.00
21588;BME280;10956;48.878;13.316;2023-03-26T05:57:14;93479.78;;;6.55;100.00
21588;BME280;10956;48.878;13.316;2023-03-26T05:59:40;93488.19;;;6.67;100.00
21588;BME280;10956;48.878;13.316;2023-03-26T06:02:06;93477.50;;;6.94;100.00
21588;BME280;10956;48.878;13.316;2023-03-26T06:04:32;93485.38;;;7.04;100.00
21588;BME280;10956;48.878;13.316;2023-03-26T06:06:57;93480.13;;;6.99;100.00
21588;BME280;10956;48.878;13.316;2023-03-26T06:09:23;93485.34;;;6.99;100.00
21588;BME280;10956;48.878;13.316;2023-03-26T06:11:48;93471.19;;;6.90;100.00
21588;BME280;10956;48.878;13.316;2023-03-26T06:14:14;93461.78;;;6.84;100.00
21588;BME280;10956;48.878;13.316;2023-03-26T06:16:40;93467.53;;;6.80;100.00
21588;BME280;10956;48.878;13.316;2023-03-26T06:19:05;93464.09;;;6.75;100.00
21588;BME280;10956;48.878;13.316;2023-03-26T06:21:30;93462.25;;;6.60;100.00
21588;BME280;10956;48.878;13.316;2023-03-26T06:23:56;93457.00;;;6.60;100.00
21588;BME280;10956;48.878;13.316;2023-03-26T06:26:21;93446.78;;;6.59;100.00
21588;BME280;10956;48.878;13.316;2023-03-26T06:28:47;93458.59;;;6.61;100.00
21588;BME280;10956;48.878;13.316;2023-03-26T06:31:12;93444.72;;;6.66;100.00
21588;BME280;10956;48.878;13.316;2023-03-26T06:33:37;93442.63;;;6.68;100.00
21588;BME280;10956;48.878;13.316;2023-03-26T06:36:03;93446.03;;;6.68;100.00
21588;BME280;10956;48.878;13.316;2023-03-26T06:38:29;93449.72;;;6.72;100.00
21588;BME280;10956;48.878;13.316;2023-03-26T06:41:01;93451.28;;;6.84;100.00
21588;BME280;10956;48.878;13.316;2023-03-26T06:43:26;93442.94;;;7.17;100.00
21588;BME280;10956;48.878;13.316;2023-03-26T06:45:52;93442.38;;;7.45;100.00
21588;BME280;10956;48.878;13.316;2023-03-26T06:48:17;93433.41;;;7.77;100.00
21588;BME280;10956;48.878;13.316;2023-03-26T06:50:43;93431.28;;;7.89;100.00
21588;BME280;10956;48.878;13.316;2023-03-26T06:53:09;93431.81;;;7.86;100.00
21588;BME280;10956;48.878;13.316;2023-03-26T06:55:35;93427.63;;;7.80;100.00
21588;BME280;10956;48.878;13.316;2023-03-26T06:58:00;93416.91;;;7.66;100.00
21588;BME280;10956;48.878;13.316;2023-03-26T07:00:26;93410.88;;;7.66;100.00
21588;BME280;10956;48.878;13.316;2023-03-26T07:02:51;93412.97;;;7.74;100.00
21588;BME280;10956;48.878;13.316;2023-03-26T07:05:17;93416.63;;;7.73;100.00
21588;BME280;10956;48.878;13.316;2023-03-26T07:07:42;93415.06;;;7.72;100.00
21588;BME280;10956;48.878;13.316;2023-03-26T07:10:08;93419.53;;;7.66;100.00
21588;BME280;10956;48.878;13.316;2023-03-26T07:12:34;93410.88;;;7.66;100.00
21588;BME280;10956;48.878;13.316;2023-03-26T07:15:00;93403.00;;;7.71;100.00
21588;BME280;10956;48.878;13.316;2023-03-26T07:17:27;93407.94;;;7.88;100.00
21588;BME280;10956;48.878;13.316;2023-03-26T07:19:52;93406.03;;;8.03;100.00
21588;BME280;10956;48.878;13.316;2023-03-26T07:22:21;93391.34;;;8.07;100.00
21588;BME280;10956;48.878;13.316;2023-03-26T07:24:47;93387.13;;;8.12;100.00
21588;BME280;10956;48.878;13.316;2023-03-26T07:30:05;93379.75;;;8.19;100.00
21588;BME280;10956;48.878;13.316;2023-03-26T07:32:43;93382.88;;;8.21;100.00
21588;BME280;10956;48.878;13.316;2023-03-26T07:35:29;93375.25;;;8.24;100.00
21588;BME280;10956;48.878;13.316;2023-03-26T07:43:32;93354.97;;;8.40;100.00
21588;BME280;10956;48.878;13.316;2023-03-26T07:46:09;93354.06;;;8.60;100.00
21588;BME280;10956;48.878;13.316;2023-03-26T07:48:45;93357.88;;;8.78;100.00
21588;BME280;10956;48.878;13.316;2023-03-26T07:51:14;93352.53;;;8.88;100.00
21588;BME280;10956;48.878;13.316;2023-03-26T07:53:40;93346.38;;;9.02;100.00
21588;BME280;10956;48.878;13.316;2023-03-26T07:56:31;93346.16;;;9.28;100.00
21588;BME280;10956;48.878;13.316;2023-03-26T08:02:13;93334.66;;;9.71;100.00
21588;BME280;10956;48.878;13.316;2023-03-26T08:04:43;93334.88;;;9.75;100.00
21588;BME280;10956;48.878;13.316;2023-03-26T08:12:57;93324.22;;;9.85;100.00
21588;BME280;10956;48.878;13.316;2023-03-26T08:15:28;93315.81;;;9.83;100.00
21588;BME280;10956;48.878;13.316;2023-03-26T08:23:28;93307.38;;;10.29;100.00
21588;BME280;10956;48.878;13.316;2023-03-26T08:26:16;93312.06;;;10.32;100.00
21588;BME280;10956;48.878;13.316;2023-03-26T08:31:39;93306.66;;;10.42;100.00
21588;BME280;10956;48.878;13.316;2023-03-26T08:34:09;93304.38;;;10.54;99.27
21588;BME280;10956;48.878;13.316;2023-03-26T08:36:35;93296.22;;;10.70;97.86
21588;BME280;10956;48.878;13.316;2023-03-26T08:39:01;93287.00;;;10.86;97.23
21588;BME280;10956;48.878;13.316;2023-03-26T08:47:15;93282.06;;;10.98;95.16
21588;BME280;10956;48.878;13.316;2023-03-26T09:01:10;93267.56;;;10.49;98.18
21588;BME280;10956;48.878;13.316;2023-03-26T09:21:42;93243.28;;;10.15;97.34
21588;BME280;10956;48.878;13.316;2023-03-26T09:39:35;93213.94;;;10.59;94.43
21588;BME280;10956;48.878;13.316;2023-03-26T09:44:55;93203.19;;;10.55;94.39
21588;BME280;10956;48.878;13.316;2023-03-26T09:47:37;93193.72;;;10.54;93.53
21588;BME280;10956;48.878;13.316;2023-03-26T09:53:02;93184.75;;;10.55;93.43
21588;BME280;10956;48.878;13.316;2023-03-26T09:56:05;93178.31;;;10.61;93.58
21588;BME280;10956;48.878;13.316;2023-03-26T09:59:30;93170.34;;;10.66;93.36
21588;BME280;10956;48.878;13.316;2023-03-26T10:02:11;93163.09;;;10.58;93.06
21588;BME280;10956;48.878;13.316;2023-03-26T10:07:29;93162.25;;;10.12;94.48
21588;BME280;10956;48.878;13.316;2023-03-26T10:12:42;93140.88;;;9.99;95.00
21588;BME280;10956;48.878;13.316;2023-03-26T10:20:56;93121.34;;;9.87;96.76
21588;BME280;10956;48.878;13.316;2023-03-26T10:34:18;93105.06;;;9.66;98.88
21588;BME280;10956;48.878;13.316;2023-03-26T10:39:45;93093.00;;;9.65;99.41
21588;BME280;10956;48.878;13.316;2023-03-26T10:47:52;93088.38;;;9.57;99.85
21588;BME280;10956;48.878;13.316;2023-03-26T10:50:34;93087.31;;;9.58;99.49
21588;BME280;10956;48.878;13.316;2023-03-26T10:58:56;93109.50;;;10.03;96.70
21588;BME280;10956;48.878;13.316;2023-03-26T11:01:34;93099.75;;;10.03;96.63
21588;BME280;10956;48.878;13.316;2023-03-26T11:04:29;93096.53;;;10.07;96.54
21588;BME280;10956;48.878;13.316;2023-03-26T11:09:43;93090.78;;;10.04;96.01
21588;BME280;10956;48.878;13.316;2023-03-26T11:12:21;93085.34;;;10.15;95.10
21588;BME280;10956;48.878;13.316;2023-03-26T11:15:04;93093.28;;;9.96;95.28
21588;BME280;10956;48.878;13.316;2023-03-26T11:20:14;93077.78;;;9.62;97.18
21588;BME280;10956;48.878;13.316;2023-03-26T11:28:22;93100.22;;;9.73;96.64
21588;BME280;10956;48.878;13.316;2023-03-26T11:31:14;93096.94;;;9.81;96.65
21588;BME280;10956;48.878;13.316;2023-03-26T11:33:47;93099.09;;;9.79;97.11
21588;BME280;10956;48.878;13.316;2023-03-26T11:36:28;93100.88;;;9.65;98.23
21588;BME280;10956;48.878;13.316;2023-03-26T11:38:56;93100.53;;;9.53;99.23
21588;BME280;10956;48.878;13.316;2023-03-26T11:41:27;93097.06;;;9.38;100.00
21588;BME280;10956;48.878;13.316;2023-03-26T11:44:02;93100.31;;;9.30;100.00
21588;BME280;10956;48.878;13.316;2023-03-26T11:46:30;93097.81;;;9.20;100.00
21588;BME280;10956;48.878;13.316;2023-03-26T11:49:03;93095.84;;;9.12;100.00
21588;BME280;10956;48.878;13.316;2023-03-26T11:51:35;93102.88;;;9.17;100.00
21588;BME280;10956;48.878;13.316;2023-03-26T11:54:02;93102.53;;;9.23;100.00
21588;BME280;10956;48.878;13.316;2023-03-26T11:56:46;93100.53;;;9.15;100.00
21588;BME280;10956;48.878;13.316;2023-03-26T11:59:27;93100.34;;;8.88;100.00
21588;BME280;10956;48.878;13.316;2023-03-26T12:07:30;93096.53;;;8.75;100.00
21588;BME280;10956;48.878;13.316;2023-03-26T12:10:04;93099.78;;;8.67;100.00
21588;BME280;10956;48.878;13.316;2023-03-26T12:12:37;93088.00;;;8.64;100.00
21588;BME280;10956;48.878;13.316;2023-03-26T12:15:11;93085.03;;;8.71;100.00
21588;BME280;10956;48.878;13.316;2023-03-26T12:17:38;93082.78;;;8.83;100.00
21588;BME280;10956;48.878;13.316;2023-03-26T12:22:57;93069.47;;;8.98;100.00
21588;BME280;10956;48.878;13.316;2023-03-26T12:25:33;93062.38;;;8.99;100.00
21588;BME280;10956;48.878;13.316;2023-03-26T12:33:04;93063.25;;;8.70;100.00
21588;BME280;10956;48.878;13.316;2023-03-26T12:35:32;93057.50;;;8.68;100.00
21588;BME280;10956;48.878;13.316;2023-03-26T12:38:15;93063.13;;;8.81;100.00
21588;BME280;10956;48.878;13.316;2023-03-26T12:40:41;93067.72;;;8.70;100.00
21588;BME280;10956;48.878;13.316;2023-03-26T12:43:24;93062.94;;;8.53;100.00
21588;BME280;10956;48.878;13.316;2023-03-26T12:45:54;93053.97;;;8.54;100.00
21588;BME280;10956;48.878;13.316;2023-03-26T12:48:21;93047.84;;;8.64;100.00
21588;BME280;10956;48.878;13.316;2023-03-26T12:53:36;93040.69;;;8.69;100.00
21588;BME280;10956;48.878;13.316;2023-03-26T12:56:22;93042.69;;;8.54;100.00
21588;BME280;10956;48.878;13.316;2023-03-26T13:04:52;93039.53;;;8.33;100.00
21588;BME280;10956;48.878;13.316;2023-03-26T13:12:40;93038.47;;;8.34;100.00
21588;BME280;10956;48.878;13.316;2023-03-26T13:15:22;93040.03;;;8.35;100.00
21588;BME280;10956;48.878;13.316;2023-03-26T13:23:23;93018.91;;;8.45;100.00
21588;BME280;10956;48.878;13.316;2023-03-26T13:28:46;93020.03;;;8.39;100.00
21588;BME280;10956;48.878;13.316;2023-03-26T13:31:43;93010.41;;;8.29;100.00
21588;BME280;10956;48.878;13.316;2023-03-26T13:34:41;92995.41;;;8.35;100.00
21588;BME280;10956;48.878;13.316;2023-03-26T13:37:13;92997.91;;;8.45;100.00
21588;BME280;10956;48.878;13.316;2023-03-26T13:42:37;92982.72;;;8.42;100.00
21588;BME280;10956;48.878;13.316;2023-03-26T13:45:10;92980.16;;;8.37;100.00
21588;BME280;10956;48.878;13.316;2023-03-26T13:47:47;92978.59;;;8.36;100.00
21588;BME280;10956;48.878;13.316;2023-03-26T13:50:15;92966.16;;;8.65;100.00
21588;BME280;10956;48.878;13.316;2023-03-26T13:52:47;92960.88;;;9.03;100.00
21588;BME280;10956;48.878;13.316;2023-03-26T13:55:34;92950.88;;;9.05;100.00
21588;BME280;10956;48.878;13.316;2023-03-26T14:09:04;92961.00;;;8.13;100.00
21588;BME280;10956;48.878;13.316;2023-03-26T14:14:47;92970.88;;;7.97;100.00
21588;BME280;10956;48.878;13.316;2023-03-26T14:22:45;92951.22;;;7.94;100.00
21588;BME280;10956;48.878;13.316;2023-03-26T14:30:46;92946.53;;;7.91;100.00
21588;BME280;10956;48.878;13.316;2023-03-26T14:36:32;92930.63;;;8.06;100.00
21588;BME280;10956;48.878;13.316;2023-03-26T14:41:52;92918.00;;;8.08;100.00
21588;BME280;10956;48.878;13.316;2023-03-26T14:54:56;92919.75;;;7.94;100.00
21588;BME280;10956;48.878;13.316;2023-03-26T15:17:23;92888.16;;;8.66;100.00
21588;BME280;10956;48.878;13.316;2023-03-26T15:23:35;92894.75;;;8.63;100.00
21588;BME280;10956;48.878;13.316;2023-03-26T15:45:49;92872.31;;;8.52;100.00
21588;BME280;10956;48.878;13.316;2023-03-26T15:59:31;92866.44;;;8.60;100.00
21588;BME280;10956;48.878;13.316;2023-03-26T16:02:15;92878.78;;;8.60;100.00
21588;BME280;10956;48.878;13.316;2023-03-26T16:04:54;92872.19;;;8.62;100.00
21588;BME280;10956;48.878;13.316;2023-03-26T16:07:30;92877.44;;;8.62;100.00
21588;BME280;10956;48.878;13.316;2023-03-26T16:10:19;92886.44;;;8.56;100.00
21588;BME280;10956;48.878;13.316;2023-03-26T16:18:40;92865.09;;;8.44;100.00
21588;BME280;10956;48.878;13.316;2023-03-26T16:24:16;92872.41;;;8.47;100.00
21588;BME280;10956;48.878;13.316;2023-03-26T16:29:19;92858.28;;;8.43;100.00
21588;BME280;10956;48.878;13.316;2023-03-26T16:34:53;92863.59;;;8.38;100.00
21588;BME280;10956;48.878;13.316;2023-03-26T16:45:35;92875.28;;;8.27;100.00
21588;BME280;10956;48.878;13.316;2023-03-26T16:50:38;92873.78;;;8.21;100.00
21588;BME280;10956;48.878;13.316;2023-03-26T16:56:02;92872.78;;;8.17;100.00
21588;BME280;10956;48.878;13.316;2023-03-26T16:58:51;92863.91;;;8.13;100.00
21588;BME280;10956;48.878;13.316;2023-03-26T17:03:58;92862.34;;;8.12;100.00
21588;BME280;10956;48.878;13.316;2023-03-26T17:09:46;92858.38;;;7.95;100.00
21588;BME280;10956;48.878;13.316;2023-03-26T17:12:42;92874.22;;;7.85;100.00
21588;BME280;10956;48.878;13.316;2023-03-26T17:18:16;92862.78;;;7.76;100.00
21588;BME280;10956;48.878;13.316;2023-03-26T17:32:08;92868.66;;;7.68;100.00
21588;BME280;10956;48.878;13.316;2023-03-26T17:42:30;92864.78;;;7.36;100.00
21588;BME280;10956;48.878;13.316;2023-03-26T17:45:21;92858.59;;;7.27;100.00
21588;BME280;10956;48.878;13.316;2023-03-26T17:47:56;92867.06;;;7.19;100.00
21588;BME280;10956;48.878;13.316;2023-03-26T17:50:30;92865.03;;;7.11;100.00
21588;BME280;10956;48.878;13.316;2023-03-26T17:55:28;92848.16;;;6.93;100.00
21588;BME280;10956;48.878;13.316;2023-03-26T17:58:00;92842.75;;;6.85;100.00
21588;BME280;10956;48.878;13.316;2023-03-26T18:00:31;92846.97;;;6.80;100.00
21588;BME280;10956;48.878;13.316;2023-03-26T18:05:40;92848.09;;;6.69;100.00
21588;BME280;10956;48.878;13.316;2023-03-26T18:11:36;92841.94;;;6.55;100.00
21588;BME280;10956;48.878;13.316;2023-03-26T18:16:56;92833.66;;;6.43;100.00
21588;BME280;10956;48.878;13.316;2023-03-26T18:19:24;92839.94;;;6.42;100.00
21588;BME280;10956;48.878;13.316;2023-03-26T18:22:01;92836.56;;;6.36;100.00
21588;BME280;10956;48.878;13.316;2023-03-26T18:24:38;92833.44;;;6.34;100.00
21588;BME280;10956;48.878;13.316;2023-03-26T18:27:18;92842.09;;;6.30;100.00
21588;BME280;10956;48.878;13.316;2023-03-26T18:32:23;92840.59;;;6.24;100.00
21588;BME280;10956;48.878;13.316;2023-03-26T18:34:56;92837.44;;;6.22;100.00
21588;BME280;10956;48.878;13.316;2023-03-26T18:37:25;92847.38;;;6.25;100.00
21588;BME280;10956;48.878;13.316;2023-03-26T18:39:59;92839.56;;;6.20;100.00
21588;BME280;10956;48.878;13.316;2023-03-26T18:42:27;92850.09;;;6.09;100.00
21588;BME280;10956;48.878;13.316;2023-03-26T18:44:55;92852.19;;;6.07;100.00
21588;BME280;10956;48.878;13.316;2023-03-26T18:47:21;92863.97;;;6.05;100.00
21588;BME280;10956;48.878;13.316;2023-03-26T18:49:50;92864.22;;;6.08;100.00
21588;BME280;10956;48.878;13.316;2023-03-26T18:52:18;92851.09;;;6.13;100.00
21588;BME280;10956;48.878;13.316;2023-03-26T18:54:49;92860.78;;;6.13;100.00
21588;BME280;10956;48.878;13.316;2023-03-26T18:57:25;92846.94;;;6.12;100.00
21588;BME280;10956;48.878;13.316;2023-03-26T18:59:53;92844.84;;;6.09;100.00